Allison Park, PA (15101)

8:45 AM EST on February 11, 2016 (GMT -0500)
Allison Park | | Change Station
CLOSE
Current Station
Personal Weather Station
Location: Hampton Township, PA
Elevation: 1125 ft
Nearby Weather Stations

Elev 1125 ft 40.57 °N, 79.96 °W | Updated 17 minutes ago

Overcast
Overcast
12.6 °F
Feels Like 13 °F
N
0.0
Wind Variable Wind from WSW
Gusts 0.0 mph

Today
High -- | Low -- °F
--% Chance of Precip.
Yesterday
High -- | Low -- °F
Precip. -- in
Pressure 30.08 in
Visibility 10.0 miles
Clouds Few 2300 ft
Scattered Clouds 3000 ft
Mostly Cloudy 3800 ft
Windchill 13 °F
Dew Point 1 °F
Humidity 60%
Rainfall 0.00 in
Snow Depth Not available.
7:19 AM 5:49 PM
Waxing Crescent, 12% visible
METAR KBTP 111335Z AUTO 27010KT 10SM FEW023 SCT030 BKN038 M12/M16 A3008 RMK AO1
Pressure 30.08 in
Visibility 10.0 miles
Clouds Few 2300 ft
Scattered Clouds 3000 ft
Mostly Cloudy 3800 ft
Windchill 13 °F
Dew Point 1 °F
Humidity 60%
Rainfall 0.00 in
Snow Depth Not available.
7:19 AM 5:49 PM
Waxing Crescent, 12% visible
METAR KBTP 111335Z AUTO 27010KT 10SM FEW023 SCT030 BKN038 M12/M16 A3008 RMK AO1

10-Day Weather Forecast

Almanac

Astronomy

Feb. 11, 2016 Rise Set
Actual Time
Civil Twilight
Nautical Twilight
Astronomical Twilight
Moon
Length of Visible Light
Length of Day
Tomorrow will be .
, % of the Moon is Illuminated

Today's Extremes

State Highs State Lows

Community

WunderPhotos

Upload Photos

1,892,046 photos uploaded!

WunderBlog® & News

Nearby

Air Quality

  Air Quality AQ Index Pollutant
Not available.

Snow Depth

Station Depth Elevation

Earthquake Activity

City Distance Mag. Time & Date
Minimum magnitude displayed is 2.5.

Coastal Water Temperatures

Place Temperature

Stations

Nearby Weather Stations

Station Location Temp. Windchill Dew Point Humidity Wind Precip. Elev Updated Type
                   

Watches & Warnings

There are currently no watches in effect.